Time;durP1;ratioP1;P1;durP2;ratioP2;P2;SDS_P1;SDS_P2;PMS_P1;PMS_P2;Temp;Humidity;BMP_temperature;BMP_pressure;BME280_temperature;BME280_humidity;BME280_pressure;Samples;Min_cycle;Max_cycle;Signal;HPM_P1;HPM_P2
2020/12/23 05:48:09;;;;;;;6.00;2.33;;;;;;;;;;6249158;23;20601;-80
2020/12/23 05:50:34;;;;;;;4.53;2.50;;;;;;;;;;6248709;23;20316;-80
2020/12/23 05:53:01;;;;;;;4.13;2.58;;;;;;;;;;6249200;23;20007;-80
2020/12/23 05:55:27;;;;;;;3.50;2.28;;;;;;;;;;6248699;23;19996;-80
2020/12/23 05:57:53;;;;;;;5.20;2.85;;;;;;;;;;6249605;23;20411;-80
2020/12/23 06:00:19;;;;;;;4.63;2.58;;;;;;;;;;6223614;23;20004;-81
2020/12/23 06:03:21;;;;;;;5.20;2.60;;;;;;;;;;6224233;23;20020;-81
2020/12/23 06:05:46;;;;;;;;;;;;;;;;;;6099429;23;20033;-81
2020/12/23 06:08:14;;;;;;;5.35;2.38;;;;;;;;;;6221530;23;19904;-81
2020/12/23 06:10:41;;;;;;;4.57;2.10;;;;;;;;;;6251392;23;20427;-81
2020/12/23 06:13:12;;;;;;;5.05;2.33;;;;;;;;;;6253343;23;20000;-81
2020/12/23 06:15:41;;;;;;;5.47;2.72;;;;;;;;;;6255498;23;20087;-81
2020/12/23 06:18:10;;;;;;;6.22;3.10;;;;;;;;;;6249959;23;20004;-81
2020/12/23 06:20:37;;;;;;;9.05;1.90;;;;;;;;;;6249774;23;20035;-81
2020/12/23 06:23:03;;;;;;;3.80;2.20;;;;;;;;;;6248909;23;20007;-81
2020/12/23 06:25:31;;;;;;;5.22;2.42;;;;;;;;;;6248853;23;20004;-81
2020/12/23 06:28:00;;;;;;;6.13;2.63;;;;;;;;;;6249287;23;20011;-81
2020/12/23 06:30:28;;;;;;;6.18;2.90;;;;;;;;;;6249599;23;20000;-81
2020/12/23 06:32:59;;;;;;;5.63;3.03;;;;;;;;;;6248745;23;20000;-81
2020/12/23 06:35:25;;;;;;;6.63;4.05;;;;;;;;;;6252957;23;20001;-81
2020/12/23 06:37:51;;;;;;;8.88;5.20;;;;;;;;;;6252652;23;20003;-81
2020/12/23 06:40:18;;;;;;;10.55;6.75;;;;;;;;;;6250331;23;20434;-81
2020/12/23 06:42:50;;;;;;;23.70;16.50;;;;;;;;;;6250156;23;20007;-81
2020/12/23 06:45:16;;;;;;;13.25;7.28;;;;;;;;;;6248082;23;20004;-81
2020/12/23 06:47:43;;;;;;;8.25;5.10;;;;;;;;;;6249316;23;20012;-81
2020/12/23 06:50:24;;;;;;;8.18;3.83;;;;;;;;;;6249947;23;20012;-81
2020/12/23 06:52:50;;;;;;;5.68;3.03;;;;;;;;;;6248191;23;20000;-81
2020/12/23 06:55:16;;;;;;;8.43;2.67;;;;;;;;;;6248007;23;20581;-81
2020/12/23 06:57:44;;;;;;;6.32;2.85;;;;;;;;;;6249330;23;20330;-81
2020/12/23 07:00:26;;;;;;;5.30;2.50;;;;;;;;;;6247934;23;20419;-81
2020/12/23 07:02:53;;;;;;;4.35;2.58;;;;;;;;;;6221293;23;20434;-81
2020/12/23 07:05:22;;;;;;;4.75;2.42;;;;;;;;;;6247521;23;20008;-81
2020/12/23 07:10:12;;;;;;;5.50;2.22;;;;;;;;;;5108250;27;20355;-81
2020/12/23 07:12:40;;;;;;;3.67;1.80;;;;;;;;;;5099403;28;20088;-81
2020/12/23 07:15:10;;;;;;;4.53;2.10;;;;;;;;;;5095155;28;20095;-81
2020/12/23 07:17:38;;;;;;;4.78;2.25;;;;;;;;;;5113425;28;20094;-81
2020/12/23 07:20:05;;;;;;;4.85;2.35;;;;;;;;;;5088174;28;20024;-81
2020/12/23 07:22:32;;;;;;;4.78;2.47;;;;;;;;;;5082407;28;20073;-81
2020/12/23 07:24:58;;;;;;;3.42;1.80;;;;;;;;;;5081624;28;20024;-81
2020/12/23 07:27:25;;;;;;;5.20;2.00;;;;;;;;;;5081966;28;20028;-81
2020/12/23 07:30:03;;;;;;;4.88;1.98;;;;;;;;;;5083252;28;20415;-81
2020/12/23 07:32:29;;;;;;;4.63;2.25;;;;;;;;;;5087707;28;20380;-81
2020/12/23 07:34:55;;;;;;;4.43;2.25;;;;;;;;;;5078270;28;20024;-81
2020/12/23 07:37:21;;;;;;;4.35;1.98;;;;;;;;;;5080486;28;20056;-82
2020/12/23 07:39:48;;;;;;;3.80;2.33;;;;;;;;;;5079842;28;20028;-82
2020/12/23 07:42:17;;;;;;;4.30;2.30;;;;;;;;;;5078624;28;20035;-82
2020/12/23 07:44:48;;;;;;;3.50;2.25;;;;;;;;;;5089339;28;20024;-82
2020/12/23 07:47:14;;;;;;;4.25;3.05;;;;;;;;;;5081513;28;20025;-82
2020/12/23 07:49:39;;;;;;;5.85;2.83;;;;;;;;;;5084765;28;20032;-82
2020/12/23 07:52:05;;;;;;;5.15;2.35;;;;;;;;;;5086867;28;20082;-82
2020/12/23 07:54:31;;;;;;;4.68;2.25;;;;;;;;;;5094180;28;20154;-81
2020/12/23 07:56:57;;;;;;;5.45;2.20;;;;;;;;;;5085190;28;20029;-81
2020/12/23 07:59:23;;;;;;;4.00;2.28;;;;;;;;;;5094436;28;20025;-81
2020/12/23 08:01:50;;;;;;;4.75;2.45;;;;;;;;;;5093576;28;20080;-80
2020/12/23 08:04:16;;;;;;;8.43;2.20;;;;;;;;;;5093643;28;20024;-80
2020/12/23 08:06:42;;;;;;;5.13;1.67;;;;;;;;;;5083465;28;20507;-81
2020/12/23 08:09:11;;;;;;;6.05;2.20;;;;;;;;;;5077605;28;20025;-81
2020/12/23 08:11:38;;;;;;;4.35;1.80;;;;;;;;;;5089842;28;20459;-79
2020/12/23 08:14:03;;;;;;;6.30;2.05;;;;;;;;;;5091081;28;20026;-80
2020/12/23 08:16:30;;;;;;;3.67;2.25;;;;;;;;;;5089723;28;20036;-81
2020/12/23 08:18:56;;;;;;;3.10;1.67;;;;;;;;;;5093809;28;20119;-79
2020/12/23 08:21:22;;;;;;;3.25;1.88;;;;;;;;;;5076482;28;20068;-81
2020/12/23 08:23:52;;;;;;;4.93;2.05;;;;;;;;;;5072589;28;20032;-81
2020/12/23 08:26:19;;;;;;;3.85;2.00;;;;;;;;;;5074207;28;20056;-82
2020/12/23 08:31:04;;;;;;;4.05;1.80;;;;;;;;;;5105449;27;20382;-80
2020/12/23 08:33:31;;;;;;;4.65;1.88;;;;;;;;;;5100430;28;20024;-80
2020/12/23 08:36:01;;;;;;;5.07;2.20;;;;;;;;;;5096447;28;20111;-80
2020/12/23 08:38:27;;;;;;;4.65;1.88;;;;;;;;;;5097525;28;20024;-80
2020/12/23 08:43:12;;;;;;;4.28;2.33;;;;;;;;;;5109146;27;20363;-82
2020/12/23 08:45:38;;;;;;;3.63;2.20;;;;;;;;;;5087823;28;20037;-80
2020/12/23 08:48:07;;;;;;;5.43;2.05;;;;;;;;;;5066806;28;20025;-81
2020/12/23 08:50:33;;;;;;;11.27;2.75;;;;;;;;;;5066955;28;20488;-80
2020/12/23 08:52:59;;;;;;;4.25;2.28;;;;;;;;;;5063710;28;20021;-81
2020/12/23 08:55:26;;;;;;;3.92;2.05;;;;;;;;;;5065226;28;20098;-81
2020/12/23 08:58:05;;;;;;;3.97;2.03;;;;;;;;;;5069157;28;20071;-80
2020/12/23 09:00:32;;;;;;;3.85;2.35;;;;;;;;;;5067741;28;20445;-81
2020/12/23 09:02:58;;;;;;;4.70;2.42;;;;;;;;;;5070595;28;20104;-80
2020/12/23 09:05:28;;;;;;;5.00;2.50;;;;;;;;;;5069018;28;20489;-81
2020/12/23 09:08:03;;;;;;;5.75;2.50;;;;;;;;;;5070311;28;20082;-81
2020/12/23 09:10:29;;;;;;;4.57;2.38;;;;;;;;;;5070108;28;20029;-81
2020/12/23 09:13:11;;;;;;;4.10;1.98;;;;;;;;;;5070231;28;20029;-82
2020/12/23 09:15:37;;;;;;;4.75;2.30;;;;;;;;;;5068743;28;20121;-81
2020/12/23 09:18:06;;;;;;;5.38;2.30;;;;;;;;;;5066958;28;20154;-81
2020/12/23 09:20:32;;;;;;;4.32;2.15;;;;;;;;;;5067964;28;20037;-81
2020/12/23 09:22:58;;;;;;;4.80;2.00;;;;;;;;;;5069499;28;20037;-81
2020/12/23 09:25:26;;;;;;;4.38;2.33;;;;;;;;;;5069010;28;20164;-82
2020/12/23 09:27:54;;;;;;;4.03;1.88;;;;;;;;;;5069237;28;20099;-82
2020/12/23 09:30:29;;;;;;;6.68;2.78;;;;;;;;;;5067875;28;20492;-82
2020/12/23 09:32:55;;;;;;;6.82;3.03;;;;;;;;;;5070314;28;20040;-82
2020/12/23 09:35:24;;;;;;;5.22;2.30;;;;;;;;;;5082328;28;20447;-82
2020/12/23 09:37:50;;;;;;;11.48;6.70;;;;;;;;;;5070825;28;20013;-82
2020/12/23 09:40:16;;;;;;;4.50;2.70;;;;;;;;;;5070155;28;20033;-82
2020/12/23 09:42:42;;;;;;;8.20;4.75;;;;;;;;;;5070556;28;20032;-82
2020/12/23 09:45:09;;;;;;;7.10;2.80;;;;;;;;;;5071185;28;20029;-82
2020/12/23 09:47:35;;;;;;;4.15;2.30;;;;;;;;;;5065876;28;20789;-82
2020/12/23 09:50:02;;;;;;;5.07;2.40;;;;;;;;;;5101734;28;20020;-82
2020/12/23 09:52:29;;;;;;;5.88;2.17;;;;;;;;;;5067133;28;20063;-81
2020/12/23 09:54:55;;;;;;;4.70;2.72;;;;;;;;;;5052275;28;20040;-82
2020/12/23 09:57:21;;;;;;;4.90;2.75;;;;;;;;;;5055345;28;20033;-82
2020/12/23 09:59:47;;;;;;;5.22;2.05;;;;;;;;;;5056765;28;20025;-82
2020/12/23 10:02:13;;;;;;;3.25;2.00;;;;;;;;;;5051601;28;20025;-82
2020/12/23 10:04:39;;;;;;;4.57;2.25;;;;;;;;;;5052419;28;20067;-82
2020/12/23 10:07:05;;;;;;;5.97;3.00;;;;;;;;;;5054919;28;20029;-82
2020/12/23 10:09:31;;;;;;;5.00;1.83;;;;;;;;;;5056435;28;20028;-83
2020/12/23 10:11:57;;;;;;;5.30;2.50;;;;;;;;;;5054220;28;20029;-82
2020/12/23 10:14:22;;;;;;;6.72;2.08;;;;;;;;;;5052951;28;20510;-81
2020/12/23 10:16:48;;;;;;;5.97;3.20;;;;;;;;;;5054561;28;20048;-80
2020/12/23 10:19:14;;;;;;;4.88;2.35;;;;;;;;;;5053629;28;20037;-80
2020/12/23 10:21:40;;;;;;;6.18;2.53;;;;;;;;;;5050463;28;20029;-81
2020/12/23 10:24:06;;;;;;;6.22;2.60;;;;;;;;;;5052474;28;20017;-80
2020/12/23 10:26:32;;;;;;;5.50;2.42;;;;;;;;;;5057754;28;20027;-80
2020/12/23 10:28:58;;;;;;;5.90;2.22;;;;;;;;;;5057150;28;20023;-80
2020/12/23 10:31:24;;;;;;;4.10;1.90;;;;;;;;;;5055833;28;20051;-81
2020/12/23 10:33:50;;;;;;;12.35;5.88;;;;;;;;;;5055722;28;20101;-80
2020/12/23 10:36:16;;;;;;;6.00;3.13;;;;;;;;;;5055716;28;20102;-81
2020/12/23 10:38:42;;;;;;;6.82;3.70;;;;;;;;;;5060360;28;20587;-79
2020/12/23 10:41:09;;;;;;;8.05;4.85;;;;;;;;;;5068208;28;20044;-80
2020/12/23 10:43:35;;;;;;;10.95;6.38;;;;;;;;;;5070242;28;20033;-79
2020/12/23 10:46:04;;;;;;;6.38;3.42;;;;;;;;;;5077062;28;20029;-80
2020/12/23 10:48:33;;;;;;;4.88;3.10;;;;;;;;;;5057890;28;20027;-81
2020/12/23 10:51:03;;;;;;;7.18;2.72;;;;;;;;;;5059391;28;20092;-83
2020/12/23 10:53:29;;;;;;;7.53;5.03;;;;;;;;;;5091175;28;20021;-83
2020/12/23 10:55:55;;;;;;;7.43;4.68;;;;;;;;;;5058306;28;20163;-80
2020/12/23 10:58:21;;;;;;;36.20;19.95;;;;;;;;;;5057687;28;20029;-81
2020/12/23 11:00:47;;;;;;;25.13;15.57;;;;;;;;;;5065333;28;20676;-80
2020/12/23 11:03:12;;;;;;;13.45;11.13;;;;;;;;;;5063884;28;20040;-82
2020/12/23 11:05:38;;;;;;;10.10;7.07;;;;;;;;;;5060238;28;20060;-81
2020/12/23 11:08:04;;;;;;;9.88;6.18;;;;;;;;;;5057748;28;20040;-82
2020/12/23 11:10:30;;;;;;;11.32;7.63;;;;;;;;;;5069342;28;20025;-81
2020/12/23 11:12:56;;;;;;;16.95;9.93;;;;;;;;;;5052663;28;20028;-80
2020/12/23 11:15:22;;;;;;;17.70;7.18;;;;;;;;;;5056510;28;20412;-82
2020/12/23 11:17:48;;;;;;;10.07;5.32;;;;;;;;;;5058280;28;20491;-82
2020/12/23 11:20:14;;;;;;;21.65;10.75;;;;;;;;;;5058232;28;20021;-83
2020/12/23 11:22:40;;;;;;;22.70;13.32;;;;;;;;;;5054858;28;20027;-81
2020/12/23 11:25:06;;;;;;;19.38;11.82;;;;;;;;;;5054382;28;20037;-81
2020/12/23 11:27:32;;;;;;;11.80;5.47;;;;;;;;;;5055518;28;20029;-81
2020/12/23 11:29:58;;;;;;;15.02;7.82;;;;;;;;;;5069402;28;20372;-81
2020/12/23 11:32:24;;;;;;;12.68;6.78;;;;;;;;;;5056407;28;20104;-81
2020/12/23 11:34:50;;;;;;;4.10;2.40;;;;;;;;;;5057984;28;20056;-81
2020/12/23 11:37:16;;;;;;;13.20;10.13;;;;;;;;;;5055899;28;20040;-80
2020/12/23 11:39:42;;;;;;;11.95;8.48;;;;;;;;;;5048998;28;20029;-80
2020/12/23 11:42:08;;;;;;;12.07;8.30;;;;;;;;;;5047756;28;20119;-80
2020/12/23 11:44:34;;;;;;;7.03;4.57;;;;;;;;;;5047959;28;20026;-80
2020/12/23 11:47:00;;;;;;;10.75;5.53;;;;;;;;;;5056311;28;20013;-82
2020/12/23 11:49:26;;;;;;;4.57;1.95;;;;;;;;;;5059538;28;20104;-81
2020/12/23 11:51:53;;;;;;;6.07;3.67;;;;;;;;;;5058095;28;20059;-81
2020/12/23 11:54:19;;;;;;;7.18;2.88;;;;;;;;;;5057272;28;20095;-81
2020/12/23 11:56:46;;;;;;;6.25;2.08;;;;;;;;;;5057621;28;20443;-81
2020/12/23 11:59:12;;;;;;;5.05;2.80;;;;;;;;;;5086757;28;20054;-80
2020/12/23 12:01:38;;;;;;;4.78;2.80;;;;;;;;;;5064356;28;20495;-81
2020/12/23 12:04:04;;;;;;;5.28;2.90;;;;;;;;;;5051740;28;20029;-80
2020/12/23 12:06:31;;;;;;;5.45;2.90;;;;;;;;;;5052174;28;20028;-81
2020/12/23 12:08:57;;;;;;;6.55;3.58;;;;;;;;;;5052655;28;20094;-80
2020/12/23 12:11:23;;;;;;;6.30;3.25;;;;;;;;;;5049133;28;20025;-80
2020/12/23 12:13:50;;;;;;;4.90;2.97;;;;;;;;;;5049584;28;20051;-80
2020/12/23 12:16:16;;;;;;;5.28;2.10;;;;;;;;;;5049741;28;20781;-81
2020/12/23 12:18:42;;;;;;;4.43;2.08;;;;;;;;;;5053299;28;20032;-81
2020/12/23 12:21:08;;;;;;;4.18;2.13;;;;;;;;;;5052839;28;20024;-82
2020/12/23 12:23:34;;;;;;;4.40;2.00;;;;;;;;;;5050335;28;20082;-82
2020/12/23 12:26:00;;;;;;;3.90;1.73;;;;;;;;;;5054056;28;20017;-82
2020/12/23 12:28:26;;;;;;;3.90;2.30;;;;;;;;;;5070322;28;20017;-83
2020/12/23 12:30:52;;;;;;;4.07;1.77;;;;;;;;;;5052541;28;20048;-82
2020/12/23 12:35:36;;;;;;;6.95;3.78;;;;;;;;;;5076204;28;20798;-80
2020/12/23 12:38:02;;;;;;;13.77;4.97;;;;;;;;;;5050718;28;20477;-80
2020/12/23 12:40:28;;;;;;;16.75;6.60;;;;;;;;;;5052373;28;20051;-81
2020/12/23 12:42:55;;;;;;;15.13;6.55;;;;;;;;;;5045457;28;20088;-81
2020/12/23 12:45:20;;;;;;;6.07;3.55;;;;;;;;;;5046515;28;20381;-81
2020/12/23 12:47:46;;;;;;;4.47;2.33;;;;;;;;;;5044953;28;20080;-81
2020/12/23 12:50:12;;;;;;;3.75;1.70;;;;;;;;;;5047583;28;20017;-81
2020/12/23 12:52:38;;;;;;;4.68;2.42;;;;;;;;;;5061861;28;20382;-81
2020/12/23 12:55:04;;;;;;;6.55;2.72;;;;;;;;;;5044062;28;20021;-81
2020/12/23 12:57:30;;;;;;;4.63;2.40;;;;;;;;;;5050304;28;20043;-81
2020/12/23 12:59:56;;;;;;;6.15;3.50;;;;;;;;;;5060597;28;20049;-81
2020/12/23 13:02:22;;;;;;;4.85;2.42;;;;;;;;;;5046169;28;20057;-81
2020/12/23 13:04:48;;;;;;;3.72;1.83;;;;;;;;;;5047524;28;20641;-81
2020/12/23 13:07:14;;;;;;;3.83;1.95;;;;;;;;;;5053339;28;20438;-81
2020/12/23 13:09:40;;;;;;;5.03;2.63;;;;;;;;;;5058571;28;20082;-81
2020/12/23 13:12:06;;;;;;;8.63;3.42;;;;;;;;;;5047288;28;20051;-81
2020/12/23 13:14:32;;;;;;;9.80;2.88;;;;;;;;;;5052167;28;20025;-80
2020/12/23 13:16:57;;;;;;;5.47;2.97;;;;;;;;;;5066320;28;20123;-81
2020/12/23 13:19:23;;;;;;;5.00;2.90;;;;;;;;;;5051469;28;20037;-81
2020/12/23 13:21:50;;;;;;;3.78;2.13;;;;;;;;;;5051848;28;20044;-81
2020/12/23 13:24:16;;;;;;;6.70;1.90;;;;;;;;;;5049641;28;20028;-80
2020/12/23 13:26:42;;;;;;;3.40;1.70;;;;;;;;;;5054996;28;20029;-80
2020/12/23 13:31:26;;;;;;;8.52;2.58;;;;;;;;;;5109158;27;20401;-81
2020/12/23 13:33:53;;;;;;;5.50;3.30;;;;;;;;;;5106195;28;20030;-81
2020/12/23 13:36:19;;;;;;;5.82;3.00;;;;;;;;;;5106940;28;20028;-81
2020/12/23 13:38:45;;;;;;;5.90;3.53;;;;;;;;;;5099737;28;20020;-81
2020/12/23 13:41:12;;;;;;;7.40;3.90;;;;;;;;;;5096551;28;20028;-83
2020/12/23 13:43:39;;;;;;;5.72;3.05;;;;;;;;;;5101658;28;20059;-82
2020/12/23 13:46:06;;;;;;;6.22;3.85;;;;;;;;;;5100457;28;20021;-82
2020/12/23 13:48:32;;;;;;;4.60;2.50;;;;;;;;;;5100857;28;20106;-82
2020/12/23 13:50:58;;;;;;;7.57;3.33;;;;;;;;;;5101820;28;20467;-82
2020/12/23 13:53:24;;;;;;;4.40;2.60;;;;;;;;;;5097924;28;20020;-82
2020/12/23 13:55:50;;;;;;;5.35;2.10;;;;;;;;;;5100152;28;20476;-82
2020/12/23 13:58:16;;;;;;;4.47;2.20;;;;;;;;;;5101666;28;20032;-82
2020/12/23 14:00:42;;;;;;;4.32;1.90;;;;;;;;;;5102319;28;20077;-81
2020/12/23 14:03:08;;;;;;;4.10;1.90;;;;;;;;;;5105290;28;20066;-82
2020/12/23 14:05:34;;;;;;;4.07;2.00;;;;;;;;;;5101039;28;20029;-81
2020/12/23 14:08:00;;;;;;;7.18;2.83;;;;;;;;;;5096384;28;20024;-81
2020/12/23 14:10:26;;;;;;;9.30;3.33;;;;;;;;;;5094075;28;20390;-81
2020/12/23 14:12:52;;;;;;;4.57;2.90;;;;;;;;;;5100754;28;20020;-81
2020/12/23 14:15:22;;;;;;;4.65;3.00;;;;;;;;;;5099885;28;20422;-80
2020/12/23 14:17:49;;;;;;;7.40;4.28;;;;;;;;;;5097327;28;20051;-81
2020/12/23 14:20:15;;;;;;;11.88;8.63;;;;;;;;;;5095735;28;20100;-81
2020/12/23 14:22:42;;;;;;;18.65;12.57;;;;;;;;;;5091576;28;20036;-81
2020/12/23 14:25:08;;;;;;;8.82;5.32;;;;;;;;;;5095185;28;20016;-81
2020/12/23 14:27:34;;;;;;;5.72;2.15;;;;;;;;;;5099748;28;20392;-81
2020/12/23 14:30:00;;;;;;;3.75;1.70;;;;;;;;;;5101218;28;20438;-80
2020/12/23 14:32:26;;;;;;;4.15;2.00;;;;;;;;;;5105579;28;20134;-83
2020/12/23 14:34:52;;;;;;;3.13;1.58;;;;;;;;;;5095300;28;20040;-82
2020/12/23 14:37:18;;;;;;;3.25;1.42;;;;;;;;;;5100409;28;20086;-82
2020/12/23 14:39:44;;;;;;;7.30;1.95;;;;;;;;;;5088598;28;20038;-82
2020/12/23 14:42:10;;;;;;;3.25;1.42;;;;;;;;;;5090061;28;20028;-82
2020/12/23 14:44:36;;;;;;;7.78;1.50;;;;;;;;;;5085329;28;20119;-82
2020/12/23 14:47:02;;;;;;;4.57;2.30;;;;;;;;;;5085125;28;20021;-83
2020/12/23 14:49:28;;;;;;;4.15;1.63;;;;;;;;;;5084199;28;20522;-82
2020/12/23 14:52:00;;;;;;;3.60;1.77;;;;;;;;;;5087458;28;20012;-81
2020/12/23 14:54:26;;;;;;;5.10;2.78;;;;;;;;;;5089904;28;20624;-82
2020/12/23 14:56:52;;;;;;;3.10;1.45;;;;;;;;;;5090803;28;20025;-82
2020/12/23 14:59:18;;;;;;;3.92;1.88;;;;;;;;;;5085812;28;20024;-81
2020/12/23 15:01:46;;;;;;;3.30;1.60;;;;;;;;;;5070989;28;20062;-82
2020/12/23 15:04:12;;;;;;;3.95;1.60;;;;;;;;;;5079862;28;20048;-82
2020/12/23 15:06:39;;;;;;;4.53;2.58;;;;;;;;;;5089085;28;20028;-82
2020/12/23 15:09:05;;;;;;;4.00;2.13;;;;;;;;;;5084022;28;20047;-82
2020/12/23 15:11:31;;;;;;;4.25;2.50;;;;;;;;;;5080289;28;20028;-82
2020/12/23 15:13:57;;;;;;;4.75;2.88;;;;;;;;;;5083347;28;20032;-82
2020/12/23 15:16:23;;;;;;;5.07;3.42;;;;;;;;;;5072418;28;20025;-82
2020/12/23 15:18:49;;;;;;;4.63;2.97;;;;;;;;;;5091938;28;20024;-82
2020/12/23 15:21:15;;;;;;;6.15;3.03;;;;;;;;;;5081190;28;20027;-82
2020/12/23 15:23:42;;;;;;;3.20;1.70;;;;;;;;;;5084095;28;20100;-82
2020/12/23 15:26:08;;;;;;;3.35;2.03;;;;;;;;;;5082294;28;20322;-82
2020/12/23 15:30:53;;;;;;;4.03;2.58;;;;;;;;;;5093632;27;20388;-82
2020/12/23 15:33:19;;;;;;;4.93;2.70;;;;;;;;;;5088891;28;20032;-82
2020/12/23 15:35:45;;;;;;;4.72;2.40;;;;;;;;;;5082710;28;20033;-82
2020/12/23 15:38:11;;;;;;;10.27;2.22;;;;;;;;;;5046655;28;20458;-82
2020/12/23 15:40:37;;;;;;;11.40;6.50;;;;;;;;;;5050884;28;20607;-81
2020/12/23 15:43:04;;;;;;;12.70;6.80;;;;;;;;;;5043819;28;20033;-81
2020/12/23 15:45:30;;;;;;;10.75;6.50;;;;;;;;;;5043287;28;20021;-82
2020/12/23 15:47:56;;;;;;;9.85;4.47;;;;;;;;;;5048072;28;20497;-82
2020/12/23 15:50:22;;;;;;;14.90;8.80;;;;;;;;;;5045410;28;20075;-81
2020/12/23 15:52:48;;;;;;;13.70;6.65;;;;;;;;;;5061025;28;20477;-81
2020/12/23 15:55:14;;;;;;;10.55;6.18;;;;;;;;;;5042202;28;20032;-82
2020/12/23 15:57:41;;;;;;;8.90;4.78;;;;;;;;;;5048095;28;20025;-81
2020/12/23 16:00:11;;;;;;;6.35;3.67;;;;;;;;;;5052697;28;20051;-81
2020/12/23 16:02:37;;;;;;;19.67;8.85;;;;;;;;;;5050533;28;20128;-80
2020/12/23 16:05:04;;;;;;;13.05;5.45;;;;;;;;;;5053141;28;20035;-81
2020/12/23 16:07:30;;;;;;;10.32;5.30;;;;;;;;;;5050585;28;20064;-81
2020/12/23 16:09:56;;;;;;;13.10;6.35;;;;;;;;;;5050143;28;20033;-80
2020/12/23 16:12:22;;;;;;;10.10;6.53;;;;;;;;;;5069047;28;20414;-81
2020/12/23 16:17:06;;;;;;;21.42;10.77;;;;;;;;;;5092117;27;20356;-82
2020/12/23 16:19:32;;;;;;;19.85;10.93;;;;;;;;;;5072183;28;20055;-82
2020/12/23 16:21:58;;;;;;;29.90;15.35;;;;;;;;;;5070183;28;20027;-81
2020/12/23 16:24:24;;;;;;;28.65;15.02;;;;;;;;;;5070167;28;20435;-82
2020/12/23 16:26:51;;;;;;;35.80;18.27;;;;;;;;;;5074400;28;20081;-81
2020/12/23 16:31:36;;;;;;;45.13;22.00;;;;;;;;;;5071737;28;20374;-81
2020/12/23 16:34:02;;;;;;;16.70;10.25;;;;;;;;;;5063047;28;20051;-80
2020/12/23 16:36:28;;;;;;;10.40;6.05;;;;;;;;;;5049780;28;20465;-81
2020/12/23 16:38:54;;;;;;;13.68;7.65;;;;;;;;;;5036841;28;20026;-82
2020/12/23 16:41:24;;;;;;;10.63;6.50;;;;;;;;;;5028251;28;20033;-80
2020/12/23 16:43:51;;;;;;;8.88;5.65;;;;;;;;;;5033009;28;20045;-80
2020/12/23 16:46:17;;;;;;;5.07;2.97;;;;;;;;;;5038697;28;20109;-81
2020/12/23 16:48:44;;;;;;;5.82;3.10;;;;;;;;;;5049329;28;20025;-80
2020/12/23 16:51:11;;;;;;;6.10;2.63;;;;;;;;;;5044682;28;20025;-79
2020/12/23 16:53:37;;;;;;;8.15;4.07;;;;;;;;;;5049437;28;20064;-81
2020/12/23 16:56:05;;;;;;;9.13;3.92;;;;;;;;;;5040674;28;20021;-81
2020/12/23 16:58:31;;;;;;;8.05;3.80;;;;;;;;;;5037007;28;20025;-82
2020/12/23 17:00:57;;;;;;;14.43;6.50;;;;;;;;;;5027529;28;20033;-81
2020/12/23 17:03:23;;;;;;;10.45;4.85;;;;;;;;;;5039847;28;20034;-81
2020/12/23 17:05:49;;;;;;;6.28;3.30;;;;;;;;;;5029464;28;20040;-81
2020/12/23 17:08:15;;;;;;;7.13;3.22;;;;;;;;;;5027433;28;20490;-82
2020/12/23 17:10:41;;;;;;;5.88;3.13;;;;;;;;;;5029427;28;20059;-82
2020/12/23 17:13:07;;;;;;;5.93;3.75;;;;;;;;;;5029310;28;20049;-80
2020/12/23 17:15:34;;;;;;;14.27;7.78;;;;;;;;;;5029171;28;20033;-82
2020/12/23 17:18:00;;;;;;;19.95;10.68;;;;;;;;;;5032183;28;20037;-82
2020/12/23 17:20:25;;;;;;;16.65;10.63;;;;;;;;;;5032314;28;20394;-82
2020/12/23 17:22:52;;;;;;;18.02;9.70;;;;;;;;;;5027926;28;20105;-83
2020/12/23 17:25:19;;;;;;;12.00;6.68;;;;;;;;;;5028711;28;20107;-82
2020/12/23 17:27:45;;;;;;;12.90;7.28;;;;;;;;;;5035810;28;20024;-82
2020/12/23 17:30:11;;;;;;;13.55;9.10;;;;;;;;;;5032383;28;20026;-82
2020/12/23 17:32:37;;;;;;;9.40;5.78;;;;;;;;;;5021824;28;20030;-82
2020/12/23 17:35:03;;;;;;;17.02;9.85;;;;;;;;;;5029389;28;20077;-82
2020/12/23 17:37:29;;;;;;;13.93;9.73;;;;;;;;;;5032175;28;20033;-82
2020/12/23 17:39:55;;;;;;;14.32;9.30;;;;;;;;;;5036308;28;20458;-82
2020/12/23 17:42:21;;;;;;;10.18;6.63;;;;;;;;;;5025722;28;20079;-82
2020/12/23 17:44:47;;;;;;;6.15;4.40;;;;;;;;;;5014422;28;20033;-81
2020/12/23 17:47:13;;;;;;;7.63;4.80;;;;;;;;;;5008437;28;20491;-82
2020/12/23 17:49:39;;;;;;;7.07;3.83;;;;;;;;;;5014519;28;20115;-82
2020/12/23 17:52:06;;;;;;;8.82;4.85;;;;;;;;;;5014720;28;20026;-82
2020/12/23 17:54:32;;;;;;;8.93;5.95;;;;;;;;;;5013032;28;20029;-82
2020/12/23 17:56:58;;;;;;;10.88;6.93;;;;;;;;;;5017579;28;20018;-81
2020/12/23 17:59:24;;;;;;;11.63;6.43;;;;;;;;;;5017864;28;20036;-83
2020/12/23 18:01:50;;;;;;;13.63;7.50;;;;;;;;;;5018915;28;20029;-83
2020/12/23 18:04:16;;;;;;;10.82;6.55;;;;;;;;;;5016185;28;20090;-83
2020/12/23 18:06:43;;;;;;;9.07;5.47;;;;;;;;;;5013804;28;20557;-83
2020/12/23 18:09:15;;;;;;;8.95;4.13;;;;;;;;;;5011390;28;20026;-83
2020/12/23 18:11:41;;;;;;;9.23;4.13;;;;;;;;;;5022798;28;20045;-81
2020/12/23 18:14:07;;;;;;;6.45;3.67;;;;;;;;;;5030644;28;20030;-83
2020/12/23 18:16:33;;;;;;;5.05;2.72;;;;;;;;;;5023003;28;20500;-83
2020/12/23 18:18:59;;;;;;;6.65;2.78;;;;;;;;;;5013590;28;20161;-83
2020/12/23 18:21:29;;;;;;;8.07;3.88;;;;;;;;;;5014418;28;20080;-82
2020/12/23 18:23:55;;;;;;;7.93;3.75;;;;;;;;;;5020378;28;20036;-83
2020/12/23 18:26:22;;;;;;;4.45;2.70;;;;;;;;;;5010483;28;20443;-83
2020/12/23 18:28:48;;;;;;;4.40;2.42;;;;;;;;;;5016762;28;20105;-83
2020/12/23 18:31:14;;;;;;;5.72;1.85;;;;;;;;;;5010817;28;20035;-82
2020/12/23 18:33:40;;;;;;;3.08;1.67;;;;;;;;;;5022652;28;20616;-82
2020/12/23 18:36:07;;;;;;;5.68;3.03;;;;;;;;;;5014470;28;20060;-83
2020/12/23 18:38:33;;;;;;;4.75;2.55;;;;;;;;;;5014728;28;20904;-83
2020/12/23 18:40:59;;;;;;;6.20;2.58;;;;;;;;;;5024256;28;20034;-83
2020/12/23 18:48:11;;;;;;;4.82;2.78;;;;;;;;;;5104598;27;20359;-85
2020/12/23 18:50:37;;;;;;;4.43;2.67;;;;;;;;;;5089590;28;20032;-85
2020/12/23 18:53:04;;;;;;;6.05;2.53;;;;;;;;;;5089101;28;20029;-84
2020/12/23 18:55:30;;;;;;;6.07;2.25;;;;;;;;;;5083311;28;20384;-85
2020/12/23 18:57:56;;;;;;;8.00;1.85;;;;;;;;;;5087927;28;20020;-85
2020/12/23 19:00:30;;;;;;;10.35;5.13;;;;;;;;;;5088976;28;20055;-84
2020/12/23 19:02:56;;;;;;;7.88;4.32;;;;;;;;;;5083020;28;20024;-83
2020/12/23 19:05:22;;;;;;;5.10;1.67;;;;;;;;;;5088820;28;20078;-85
2020/12/23 19:07:48;;;;;;;4.97;1.90;;;;;;;;;;5097282;28;20020;-84
2020/12/23 19:10:16;;;;;;;3.28;1.60;;;;;;;;;;5091347;28;20476;-85
2020/12/23 19:12:43;;;;;;;4.38;2.58;;;;;;;;;;5088135;28;20024;-84
2020/12/23 19:15:10;;;;;;;4.43;2.22;;;;;;;;;;5089132;28;20056;-85
2020/12/23 19:17:36;;;;;;;5.00;1.90;;;;;;;;;;5089692;28;20074;-85
2020/12/23 19:20:05;;;;;;;4.18;2.13;;;;;;;;;;5088757;28;20365;-84
2020/12/23 19:22:36;;;;;;;4.20;2.10;;;;;;;;;;5095580;28;20105;-85
2020/12/23 19:25:04;;;;;;;4.53;2.00;;;;;;;;;;5102708;28;20040;-84
2020/12/23 19:27:30;;;;;;;3.92;2.35;;;;;;;;;;5100706;28;20119;-85
2020/12/23 19:32:14;;;;;;;5.53;2.33;;;;;;;;;;5105850;27;20394;-85
2020/12/23 19:34:40;;;;;;;3.38;1.90;;;;;;;;;;5099733;28;20032;-86
2020/12/23 19:37:06;;;;;;;5.07;1.75;;;;;;;;;;5074445;28;20028;-86
2020/12/23 19:39:33;;;;;;;3.88;2.25;;;;;;;;;;5087346;28;20043;-86
2020/12/23 19:41:59;;;;;;;4.00;2.30;;;;;;;;;;5086289;28;20017;-86
2020/12/23 19:44:25;;;;;;;6.70;3.35;;;;;;;;;;5085312;28;20445;-87
2020/12/23 19:46:51;;;;;;;4.80;2.55;;;;;;;;;;5071395;28;20499;-87
2020/12/23 19:49:20;;;;;;;4.68;2.90;;;;;;;;;;5095460;28;20032;-86
2020/12/23 19:54:05;;;;;;;4.40;2.53;;;;;;;;;;5122446;27;20685;-87
2020/12/23 19:56:31;;;;;;;4.50;2.42;;;;;;;;;;5102438;28;20025;-83
2020/12/23 19:58:57;;;;;;;4.97;2.78;;;;;;;;;;5106646;28;20046;-86
2020/12/23 20:01:23;;;;;;;4.35;2.55;;;;;;;;;;5084173;28;20024;-85
2020/12/23 20:03:49;;;;;;;4.57;2.45;;;;;;;;;;5092359;28;20028;-85
2020/12/23 20:08:34;;;;;;;4.60;3.05;;;;;;;;;;5082602;27;20341;-86
2020/12/23 20:11:00;;;;;;;5.88;3.20;;;;;;;;;;5066999;28;20026;-86
2020/12/23 20:13:26;;;;;;;3.88;1.70;;;;;;;;;;5058205;28;20032;-86
2020/12/23 20:15:52;;;;;;;4.25;2.22;;;;;;;;;;5056225;28;20435;-87
2020/12/23 20:18:18;;;;;;;5.68;2.45;;;;;;;;;;5052326;28;20025;-87
2020/12/23 20:20:47;;;;;;;4.30;2.03;;;;;;;;;;5061138;28;20029;-87
2020/12/23 20:23:12;;;;;;;4.25;2.63;;;;;;;;;;5080571;28;20028;-86
2020/12/23 20:25:38;;;;;;;6.28;2.78;;;;;;;;;;5076694;28;20029;-84
2020/12/23 20:28:04;;;;;;;4.20;2.17;;;;;;;;;;5062184;28;20025;-84
2020/12/23 20:30:30;;;;;;;4.90;2.60;;;;;;;;;;5062655;28;20029;-84
2020/12/23 20:32:56;;;;;;;3.97;2.20;;;;;;;;;;5070990;28;20492;-84
2020/12/23 20:35:22;;;;;;;5.28;2.60;;;;;;;;;;5084600;28;20032;-87
2020/12/23 20:37:52;;;;;;;4.70;2.58;;;;;;;;;;5070084;28;20029;-87
2020/12/23 20:40:18;;;;;;;4.65;2.25;;;;;;;;;;5064211;28;20025;-83
2020/12/23 20:42:44;;;;;;;4.90;2.42;;;;;;;;;;5073783;28;20392;-87
2020/12/23 20:45:11;;;;;;;4.05;2.33;;;;;;;;;;5052368;28;20025;-86
2020/12/23 20:47:37;;;;;;;5.53;2.05;;;;;;;;;;5054470;28;20032;-85
2020/12/23 20:50:04;;;;;;;5.80;2.90;;;;;;;;;;5076952;28;20017;-86
2020/12/23 20:52:30;;;;;;;6.13;2.92;;;;;;;;;;5070141;28;20033;-84
2020/12/23 20:54:56;;;;;;;3.47;2.08;;;;;;;;;;5067434;28;20021;-85